createdAt,value
2019-03-03T00:00:50.564Z,77
2019-03-03T00:01:50.597Z,77
2019-03-03T00:02:50.610Z,76
2019-03-03T00:03:50.670Z,77
2019-03-03T00:04:50.626Z,77
2019-03-03T00:05:50.621Z,76
2019-03-03T00:06:50.639Z,76
2019-03-03T00:07:50.694Z,77
2019-03-03T00:08:50.699Z,76
2019-03-03T00:09:50.747Z,77
2019-03-03T00:10:50.714Z,77
2019-03-03T00:11:50.786Z,76
2019-03-03T00:12:50.764Z,76
2019-03-03T00:13:50.762Z,76
2019-03-03T00:14:50.757Z,76
2019-03-03T00:15:53.042Z,76
2019-03-03T00:16:50.815Z,76
2019-03-03T00:17:50.843Z,76
2019-03-03T00:18:50.799Z,76
2019-03-03T00:19:50.833Z,76
2019-03-03T00:20:50.836Z,76
2019-03-03T00:21:50.819Z,76
2019-03-03T00:22:50.825Z,76
2019-03-03T00:23:50.871Z,76
2019-03-03T00:24:50.875Z,76
2019-03-03T00:25:50.909Z,76
2019-03-03T00:26:50.881Z,76
2019-03-03T00:27:50.879Z,77
2019-03-03T00:28:50.889Z,77
2019-03-03T00:29:50.996Z,77
2019-03-03T00:30:50.885Z,77
2019-03-03T00:31:50.895Z,76
2019-03-03T00:32:50.921Z,77
2019-03-03T00:33:50.903Z,77
2019-03-03T00:34:50.880Z,76
2019-03-03T00:35:50.881Z,76
2019-03-03T00:37:50.970Z,77
2019-03-03T00:38:50.940Z,77
2019-03-03T00:39:51.039Z,77
2019-03-03T00:40:50.952Z,77
2019-03-03T00:41:50.981Z,76
2019-03-03T00:42:51.003Z,77
2019-03-03T00:43:51.026Z,77
2019-03-03T00:44:51.057Z,77
2019-03-03T00:45:51.115Z,77
2019-03-03T00:46:51.171Z,76
2019-03-03T00:47:53.457Z,77
2019-03-03T00:48:51.278Z,77
2019-03-03T00:49:51.288Z,77
2019-03-03T00:50:51.368Z,77
2019-03-03T00:51:51.333Z,77
2019-03-03T00:52:51.402Z,77
2019-03-03T00:53:51.408Z,77
2019-03-03T00:54:51.428Z,77
2019-03-03T00:55:51.487Z,76
2019-03-03T00:56:51.515Z,77
2019-03-03T00:57:51.525Z,77
2019-03-03T00:58:51.549Z,77
2019-03-03T00:59:51.578Z,77
2019-03-03T01:00:51.620Z,77
2019-03-03T01:01:51.667Z,77
2019-03-03T01:02:51.694Z,77
2019-03-03T01:03:51.729Z,77
2019-03-03T01:04:51.790Z,77
2019-03-03T01:05:51.808Z,78
2019-03-03T01:06:51.854Z,77
2019-03-03T01:07:51.879Z,77
2019-03-03T01:08:51.972Z,77
2019-03-03T01:09:51.907Z,77
2019-03-03T01:10:51.942Z,77
2019-03-03T01:11:51.987Z,77
2019-03-03T01:12:53.014Z,77
2019-03-03T01:13:51.998Z,77
2019-03-03T01:14:52.060Z,77
2019-03-03T01:15:52.095Z,77
2019-03-03T01:16:52.169Z,77
2019-03-03T01:17:52.134Z,77
2019-03-03T01:18:52.119Z,77
2019-03-03T01:19:52.158Z,77
2019-03-03T01:20:52.180Z,77
2019-03-03T01:21:52.193Z,77
2019-03-03T01:22:52.209Z,77
2019-03-03T01:23:52.246Z,77
2019-03-03T01:24:52.246Z,77
2019-03-03T01:25:52.292Z,77
2019-03-03T01:26:52.291Z,77
2019-03-03T01:27:52.358Z,77
2019-03-03T01:28:52.364Z,77
2019-03-03T01:29:52.382Z,77
2019-03-03T01:30:52.409Z,76
2019-03-03T01:31:52.408Z,77
2019-03-03T01:32:52.424Z,77
2019-03-03T01:33:52.467Z,77
2019-03-03T01:34:53.491Z,76
2019-03-03T01:35:52.505Z,77
2019-03-03T01:36:52.506Z,77
2019-03-03T01:37:52.506Z,77
2019-03-03T01:38:52.546Z,77
2019-03-03T01:39:52.564Z,77
2019-03-03T01:40:52.581Z,78
2019-03-03T01:41:52.596Z,78
2019-03-03T01:42:52.566Z,78
2019-03-03T01:43:52.567Z,79
2019-03-03T01:44:52.604Z,80
2019-03-03T01:45:52.607Z,80
2019-03-03T01:46:52.612Z,80
2019-03-03T01:47:52.602Z,81
2019-03-03T01:48:52.659Z,81
2019-03-03T01:49:52.646Z,81
2019-03-03T01:50:52.666Z,82
2019-03-03T01:51:52.666Z,82
2019-03-03T01:52:52.667Z,83
2019-03-03T01:53:52.666Z,82
2019-03-03T01:54:52.685Z,82
2019-03-03T01:55:52.657Z,83
2019-03-03T01:56:52.657Z,84
2019-03-03T01:57:52.688Z,84
2019-03-03T01:58:52.692Z,84
2019-03-03T01:59:52.675Z,84
2019-03-03T02:00:52.690Z,84
2019-03-03T02:01:52.676Z,85
2019-03-03T02:02:52.713Z,85
2019-03-03T02:03:52.739Z,85
2019-03-03T02:04:52.805Z,85
2019-03-03T02:05:52.793Z,85
2019-03-03T02:06:52.826Z,85
2019-03-03T02:07:52.872Z,85
2019-03-03T02:08:52.922Z,85
2019-03-03T02:09:52.914Z,85
2019-03-03T02:10:52.963Z,85
2019-03-03T02:11:53.008Z,84
2019-03-03T02:12:53.068Z,85
2019-03-03T02:13:53.084Z,85
2019-03-03T02:14:53.127Z,85
2019-03-03T02:15:53.147Z,85
2019-03-03T02:16:53.209Z,85
2019-03-03T02:17:53.172Z,85
2019-03-03T02:18:53.274Z,85
2019-03-03T02:19:53.297Z,86
2019-03-03T02:20:53.321Z,86
2019-03-03T02:21:53.362Z,86
2019-03-03T02:22:53.342Z,86
2019-03-03T02:23:53.407Z,86
2019-03-03T02:24:53.405Z,87
2019-03-03T02:25:53.463Z,87
2019-03-03T02:26:53.483Z,87
2019-03-03T02:27:53.504Z,87
2019-03-03T02:28:53.563Z,87
2019-03-03T02:29:53.628Z,87
2019-03-03T02:30:53.632Z,87
2019-03-03T02:31:53.639Z,87
2019-03-03T02:32:53.703Z,87
2019-03-03T02:33:53.689Z,87
2019-03-03T02:34:53.724Z,87
2019-03-03T02:35:53.734Z,87
2019-03-03T02:36:53.761Z,87
2019-03-03T02:37:56.260Z,87
2019-03-03T02:38:53.799Z,87
2019-03-03T02:39:53.861Z,87
2019-03-03T02:40:53.867Z,87
2019-03-03T02:41:53.905Z,87
2019-03-03T02:42:53.937Z,86
2019-03-03T02:43:53.924Z,86
2019-03-03T02:44:53.968Z,86
2019-03-03T02:45:54.004Z,85
2019-03-03T02:46:53.984Z,85
2019-03-03T02:47:54.052Z,85
2019-03-03T02:48:54.040Z,85
2019-03-03T02:49:54.117Z,85
2019-03-03T02:50:54.090Z,84
2019-03-03T02:51:54.121Z,85
2019-03-03T02:52:54.189Z,84
2019-03-03T02:53:54.158Z,84
2019-03-03T02:54:54.214Z,84
2019-03-03T02:55:54.214Z,84
2019-03-03T02:56:54.250Z,84
2019-03-03T02:57:54.260Z,83
2019-03-03T02:58:54.281Z,83
2019-03-03T02:59:54.323Z,83
2019-03-03T03:00:54.364Z,83
2019-03-03T03:01:54.371Z,83
2019-03-03T03:02:54.390Z,83
2019-03-03T03:03:54.373Z,83
2019-03-03T03:04:54.415Z,83
2019-03-03T03:05:54.483Z,83
2019-03-03T03:06:54.418Z,82
2019-03-03T03:07:54.427Z,83
2019-03-03T03:08:54.444Z,82
2019-03-03T03:09:54.481Z,82
2019-03-03T03:10:54.527Z,82
2019-03-03T03:11:54.485Z,82
2019-03-03T03:12:54.531Z,82
2019-03-03T03:13:54.521Z,82
2019-03-03T03:14:54.526Z,82
2019-03-03T03:15:54.527Z,83
2019-03-03T03:16:54.553Z,83
2019-03-03T03:17:54.528Z,83
2019-03-03T03:18:54.549Z,82
2019-03-03T03:19:54.572Z,82
2019-03-03T03:20:54.602Z,82
2019-03-03T03:21:54.595Z,82
2019-03-03T03:22:54.627Z,82
2019-03-03T03:23:54.612Z,82
2019-03-03T03:24:54.608Z,82
2019-03-03T03:25:54.620Z,82
2019-03-03T03:26:54.672Z,82
2019-03-03T03:27:54.741Z,82
2019-03-03T03:28:54.656Z,82
2019-03-03T03:29:54.662Z,81
2019-03-03T03:30:54.644Z,81
2019-03-03T03:31:54.801Z,81
2019-03-03T03:32:54.682Z,80
2019-03-03T03:33:54.676Z,81
2019-03-03T03:34:54.736Z,81
2019-03-03T03:35:54.658Z,81
2019-03-03T03:36:54.664Z,80
2019-03-03T03:37:54.711Z,80
2019-03-03T03:38:54.665Z,81
2019-03-03T03:39:54.743Z,80
2019-03-03T03:40:54.734Z,80
2019-03-03T03:41:54.708Z,80
2019-03-03T03:42:54.785Z,81
2019-03-03T03:43:54.739Z,81
2019-03-03T03:44:54.728Z,81
2019-03-03T03:45:54.701Z,80
2019-03-03T03:46:54.718Z,81
2019-03-03T03:47:54.715Z,81
2019-03-03T03:48:54.720Z,81
2019-03-03T03:49:54.824Z,80
2019-03-03T03:50:54.765Z,80
2019-03-03T03:51:55.242Z,80
2019-03-03T03:52:54.771Z,80
2019-03-03T03:53:54.749Z,80
2019-03-03T03:54:54.799Z,80
2019-03-03T03:55:54.822Z,79
2019-03-03T03:56:54.875Z,79
2019-03-03T03:57:54.896Z,79
2019-03-03T03:58:54.918Z,79
2019-03-03T03:59:54.998Z,79
2019-03-03T04:00:55.020Z,79
2019-03-03T04:01:55.026Z,79
2019-03-03T04:02:55.047Z,79
2019-03-03T04:03:55.094Z,79
2019-03-03T04:04:55.134Z,79
2019-03-03T04:05:55.122Z,79
2019-03-03T04:06:55.146Z,79
2019-03-03T04:07:55.221Z,78
2019-03-03T04:08:55.238Z,78
2019-03-03T04:09:55.296Z,78
2019-03-03T04:10:55.263Z,79
2019-03-03T04:11:55.319Z,78
2019-03-03T04:12:55.309Z,78
2019-03-03T04:13:55.364Z,78
2019-03-03T04:14:55.378Z,78
2019-03-03T04:15:55.372Z,78
2019-03-03T04:16:55.415Z,78
2019-03-03T04:17:55.407Z,77
2019-03-03T04:18:55.449Z,77
2019-03-03T04:19:55.469Z,77
2019-03-03T04:20:55.494Z,77
2019-03-03T04:21:55.514Z,77
2019-03-03T04:22:55.538Z,77
2019-03-03T04:23:55.530Z,76
2019-03-03T04:24:55.534Z,77
2019-03-03T04:25:55.606Z,76
2019-03-03T04:26:55.561Z,76
2019-03-03T04:27:55.573Z,76
2019-03-03T04:28:55.618Z,76
2019-03-03T04:29:55.606Z,76
2019-03-03T04:30:55.699Z,76
2019-03-03T04:31:55.672Z,76
2019-03-03T04:32:55.672Z,75
2019-03-03T04:33:55.680Z,75
2019-03-03T04:34:55.682Z,76
2019-03-03T04:35:55.719Z,75
2019-03-03T04:36:55.692Z,75
2019-03-03T04:37:55.704Z,74
2019-03-03T04:38:55.760Z,74
2019-03-03T04:39:55.738Z,74
2019-03-03T04:40:55.754Z,73
2019-03-03T04:41:55.732Z,74
2019-03-03T04:42:55.756Z,74
2019-03-03T04:43:55.927Z,73
2019-03-03T04:44:55.768Z,73
2019-03-03T04:45:55.834Z,73
2019-03-03T04:46:55.797Z,72
2019-03-03T04:47:55.795Z,73
2019-03-03T04:48:55.801Z,72
2019-03-03T04:49:55.806Z,72
2019-03-03T04:50:55.799Z,72
2019-03-03T04:51:55.821Z,71
2019-03-03T04:52:55.867Z,71
2019-03-03T04:53:55.825Z,72
2019-03-03T04:54:55.846Z,71
2019-03-03T04:55:55.827Z,71
2019-03-03T04:56:55.851Z,71
2019-03-03T04:57:55.829Z,71
2019-03-03T04:58:55.823Z,71
2019-03-03T04:59:55.893Z,71
2019-03-03T05:00:55.852Z,71
2019-03-03T05:01:55.897Z,71
2019-03-03T05:02:55.951Z,71
2019-03-03T05:03:55.936Z,71
2019-03-03T05:04:56.002Z,71
2019-03-03T05:05:56.035Z,71
2019-03-03T05:06:56.074Z,71
2019-03-03T05:07:56.135Z,70
2019-03-03T05:08:56.103Z,70
2019-03-03T05:09:56.158Z,70
2019-03-03T05:10:56.160Z,70
2019-03-03T05:11:56.242Z,69
2019-03-03T05:12:56.255Z,69
2019-03-03T05:13:56.289Z,69
2019-03-03T05:14:56.329Z,69
2019-03-03T05:15:56.494Z,68
2019-03-03T05:16:56.425Z,68
2019-03-03T05:17:56.468Z,68
2019-03-03T05:18:56.491Z,68
2019-03-03T05:19:56.494Z,68
2019-03-03T05:20:56.516Z,68
2019-03-03T05:22:28.846Z,68
2019-03-03T05:22:56.677Z,67
2019-03-03T05:23:56.617Z,67
2019-03-03T05:24:56.673Z,67
2019-03-03T05:25:56.679Z,66
2019-03-03T05:26:56.737Z,66
2019-03-03T05:27:56.758Z,66
2019-03-03T05:28:56.785Z,66
2019-03-03T05:29:56.786Z,66
2019-03-03T05:30:56.800Z,66
2019-03-03T05:31:56.845Z,66
2019-03-03T05:32:56.864Z,66
2019-03-03T05:33:56.873Z,66
2019-03-03T05:34:56.912Z,66
2019-03-03T05:35:56.914Z,65
2019-03-03T05:36:56.982Z,65
2019-03-03T05:37:56.917Z,66
2019-03-03T05:38:56.984Z,65
2019-03-03T05:39:57.023Z,65
2019-03-03T05:40:57.065Z,65
2019-03-03T05:41:57.051Z,65
2019-03-03T05:42:57.075Z,65
2019-03-03T05:43:57.071Z,65
2019-03-03T05:44:57.184Z,66
2019-03-03T05:45:57.215Z,66
2019-03-03T05:46:57.176Z,66
2019-03-03T05:47:57.243Z,65
2019-03-03T05:48:57.239Z,65
2019-03-03T05:49:57.196Z,65
2019-03-03T05:50:57.247Z,64
2019-03-03T05:51:57.239Z,64
2019-03-03T05:52:57.831Z,64
2019-03-03T05:53:57.342Z,63
2019-03-03T05:54:57.318Z,64
2019-03-03T05:55:57.361Z,64
2019-03-03T05:56:57.364Z,63
2019-03-03T05:57:57.380Z,64
2019-03-03T05:58:57.787Z,63
2019-03-03T05:59:57.418Z,63
2019-03-03T06:00:57.393Z,63
2019-03-03T06:01:57.416Z,63
2019-03-03T06:02:57.447Z,63
2019-03-03T06:03:57.458Z,63
2019-03-03T06:04:57.481Z,62
2019-03-03T06:05:57.454Z,63
2019-03-03T06:06:57.499Z,63
2019-03-03T06:07:57.558Z,63
2019-03-03T06:08:57.481Z,62
2019-03-03T06:09:57.501Z,63
2019-03-03T06:10:57.490Z,63
2019-03-03T06:11:57.508Z,62
2019-03-03T06:12:57.516Z,63
2019-03-03T06:13:57.529Z,63
2019-03-03T06:14:57.534Z,63
2019-03-03T06:15:57.557Z,63
2019-03-03T06:16:57.539Z,63
2019-03-03T06:17:57.534Z,62
2019-03-03T06:18:57.516Z,62
2019-03-03T06:19:57.512Z,62
2019-03-03T06:20:57.554Z,62
2019-03-03T06:21:57.602Z,62
2019-03-03T06:22:57.672Z,61
2019-03-03T06:23:57.719Z,62
2019-03-03T06:24:57.795Z,62
2019-03-03T06:25:57.952Z,62
2019-03-03T06:26:57.839Z,62
2019-03-03T06:27:57.871Z,62
2019-03-03T06:28:57.877Z,62
2019-03-03T06:29:57.903Z,62
2019-03-03T06:30:57.992Z,63
2019-03-03T06:31:57.954Z,63
2019-03-03T06:32:58.009Z,64
2019-03-03T06:33:58.070Z,64
2019-03-03T06:34:58.152Z,64
2019-03-03T06:35:58.087Z,64
2019-03-03T06:36:58.116Z,64
2019-03-03T06:37:58.221Z,64
2019-03-03T06:38:58.235Z,64
2019-03-03T06:39:58.218Z,64
2019-03-03T06:40:58.293Z,64
2019-03-03T06:41:58.336Z,63
2019-03-03T06:42:58.357Z,63
2019-03-03T06:43:58.516Z,63
2019-03-03T06:44:58.425Z,63
2019-03-03T06:45:58.458Z,63
2019-03-03T06:46:58.456Z,63
2019-03-03T06:47:58.492Z,63
2019-03-03T06:48:58.580Z,63
2019-03-03T06:49:58.594Z,63
2019-03-03T06:50:58.587Z,63
2019-03-03T06:51:58.613Z,64
2019-03-03T06:52:58.655Z,63
2019-03-03T06:53:58.670Z,64
2019-03-03T06:54:58.724Z,64
2019-03-03T06:55:58.779Z,63
2019-03-03T06:56:58.785Z,64
2019-03-03T06:57:58.761Z,64
2019-03-03T06:58:58.803Z,64
2019-03-03T06:59:58.863Z,64
2019-03-03T07:00:58.907Z,64
2019-03-03T07:01:58.889Z,64
2019-03-03T07:02:58.924Z,64
2019-03-03T07:03:59.019Z,64
2019-03-03T07:04:58.978Z,64
2019-03-03T07:05:58.980Z,64
2019-03-03T07:06:59.032Z,64
2019-03-03T07:07:59.048Z,64
2019-03-03T07:08:59.056Z,64
2019-03-03T07:09:59.077Z,64
2019-03-03T07:10:59.084Z,64
2019-03-03T07:11:59.177Z,64
2019-03-03T07:12:59.147Z,65
2019-03-03T07:13:59.175Z,65
2019-03-03T07:14:59.207Z,65
2019-03-03T07:15:59.237Z,65
2019-03-03T07:16:59.256Z,65
2019-03-03T07:17:59.277Z,65
2019-03-03T07:18:59.388Z,64
2019-03-03T07:19:59.381Z,65
2019-03-03T07:20:59.379Z,65
2019-03-03T07:21:59.379Z,65
2019-03-03T07:22:59.384Z,65
2019-03-03T07:23:59.396Z,64
2019-03-03T07:24:59.425Z,64
2019-03-03T07:25:59.454Z,64
2019-03-03T07:26:59.444Z,64
2019-03-03T07:27:59.450Z,63
2019-03-03T07:28:59.510Z,64
2019-03-03T07:29:59.474Z,64
2019-03-03T07:30:59.554Z,63
2019-03-03T07:31:59.525Z,62
2019-03-03T07:32:59.556Z,62
2019-03-03T07:33:59.564Z,63
2019-03-03T07:34:59.545Z,61
2019-03-03T07:35:59.573Z,61
2019-03-03T07:36:59.580Z,61
2019-03-03T07:37:59.595Z,61
2019-03-03T07:38:59.625Z,61
2019-03-03T07:39:59.621Z,61
2019-03-03T07:40:59.673Z,61
2019-03-03T07:41:59.670Z,61
2019-03-03T07:42:59.654Z,60
2019-03-03T07:43:59.662Z,61
2019-03-03T07:44:59.629Z,60
2019-03-03T07:46:02.126Z,60
2019-03-03T07:46:59.790Z,59
2019-03-03T07:47:59.773Z,60
2019-03-03T07:48:59.691Z,60
2019-03-03T07:49:59.674Z,60
2019-03-03T07:50:59.804Z,60
2019-03-03T07:51:59.715Z,60
2019-03-03T07:52:59.717Z,61
2019-03-03T07:53:59.695Z,61
2019-03-03T07:54:59.728Z,59
2019-03-03T07:55:59.718Z,61
2019-03-03T07:56:59.706Z,60
2019-03-03T07:57:59.718Z,60
2019-03-03T07:58:59.750Z,60
2019-03-03T07:59:59.738Z,61
2019-03-03T08:00:59.745Z,60
2019-03-03T08:01:59.757Z,60
2019-03-03T08:02:59.832Z,60
2019-03-03T08:03:59.817Z,60
2019-03-03T08:04:59.774Z,60
2019-03-03T08:05:59.781Z,60
2019-03-03T08:06:59.835Z,61
2019-03-03T08:07:59.805Z,61
2019-03-03T08:08:59.918Z,61
2019-03-03T08:09:59.819Z,61
2019-03-03T08:10:59.832Z,60
2019-03-03T08:12:00.924Z,60
2019-03-03T08:13:08.870Z,61
2019-03-03T08:13:59.844Z,60
2019-03-03T08:14:59.883Z,61
2019-03-03T08:15:59.870Z,61
2019-03-03T08:16:59.891Z,61
2019-03-03T08:18:02.942Z,60
2019-03-03T08:18:59.917Z,60
2019-03-03T08:19:59.901Z,60
2019-03-03T08:20:59.951Z,60
2019-03-03T08:22:00.041Z,61
2019-03-03T08:22:59.963Z,60
2019-03-03T08:23:59.912Z,60
2019-03-03T08:24:59.948Z,59
2019-03-03T08:25:59.966Z,59
2019-03-03T08:26:59.969Z,59
2019-03-03T08:28:00.003Z,59
2019-03-03T08:28:59.957Z,59
2019-03-03T08:29:59.968Z,59
2019-03-03T08:30:59.965Z,59
2019-03-03T08:31:59.959Z,59
2019-03-03T08:32:59.966Z,59
2019-03-03T08:34:00.014Z,58
2019-03-03T08:35:00.038Z,59
2019-03-03T08:36:00.049Z,60
2019-03-03T08:37:00.304Z,60
2019-03-03T08:38:00.081Z,59
2019-03-03T08:39:00.078Z,59
2019-03-03T08:40:00.284Z,59
2019-03-03T08:41:00.103Z,59
2019-03-03T08:42:00.107Z,60
2019-03-03T08:43:00.181Z,60
2019-03-03T08:44:00.134Z,59
2019-03-03T08:45:00.260Z,59
2019-03-03T08:46:00.197Z,59
2019-03-03T08:47:00.165Z,60
2019-03-03T08:48:00.186Z,61
2019-03-03T08:49:00.209Z,60
2019-03-03T08:50:00.293Z,61
2019-03-03T08:51:00.254Z,59
2019-03-03T08:52:00.225Z,59
2019-03-03T08:53:00.247Z,59
2019-03-03T08:54:00.244Z,58
2019-03-03T08:55:00.452Z,59
2019-03-03T08:56:00.221Z,58
2019-03-03T08:57:00.222Z,58
2019-03-03T08:58:00.266Z,57
2019-03-03T08:59:00.295Z,58
2019-03-03T09:00:00.324Z,58
2019-03-03T09:01:01.356Z,58
2019-03-03T09:02:02.744Z,58
2019-03-03T09:03:00.261Z,59
2019-03-03T09:04:00.285Z,58
2019-03-03T09:05:00.397Z,59
2019-03-03T09:06:00.327Z,59
2019-03-03T09:07:00.300Z,59
2019-03-03T09:08:00.628Z,60
2019-03-03T09:09:00.392Z,58
2019-03-03T09:10:02.897Z,59
2019-03-03T09:11:00.426Z,58
2019-03-03T09:12:00.978Z,58
2019-03-03T09:13:00.493Z,57
2019-03-03T09:14:00.523Z,58
2019-03-03T09:15:00.547Z,58
2019-03-03T09:16:00.592Z,57
2019-03-03T09:17:00.608Z,57
2019-03-03T09:18:00.606Z,57
2019-03-03T09:19:00.639Z,58
2019-03-03T09:20:00.662Z,58
2019-03-03T09:21:00.713Z,58
2019-03-03T09:22:00.787Z,57
2019-03-03T09:23:01.789Z,57
2019-03-03T09:24:00.887Z,57
2019-03-03T09:25:00.875Z,56
2019-03-03T09:26:00.893Z,57
2019-03-03T09:27:01.457Z,57
2019-03-03T09:28:00.957Z,56
2019-03-03T09:29:00.990Z,57
2019-03-03T09:30:01.018Z,56
2019-03-03T09:31:01.016Z,56
2019-03-03T09:32:01.052Z,56
2019-03-03T09:33:01.146Z,55
2019-03-03T09:34:01.206Z,55
2019-03-03T09:35:01.153Z,56
2019-03-03T09:36:01.212Z,56
2019-03-03T09:37:01.247Z,56
2019-03-03T09:38:01.374Z,55
2019-03-03T09:39:01.308Z,55
2019-03-03T09:40:08.942Z,56
2019-03-03T09:41:01.403Z,55
2019-03-03T09:42:01.338Z,55
2019-03-03T09:43:01.473Z,55
2019-03-03T09:44:10.485Z,55
2019-03-03T09:45:01.408Z,55
2019-03-03T09:46:01.460Z,55
2019-03-03T09:47:02.541Z,55
2019-03-03T09:48:01.631Z,55
2019-03-03T09:49:02.520Z,56
2019-03-03T09:50:01.559Z,56
2019-03-03T09:51:01.594Z,56
2019-03-03T09:52:01.572Z,56
2019-03-03T09:53:01.582Z,56
2019-03-03T09:54:01.631Z,56
2019-03-03T09:55:01.676Z,56
2019-03-03T09:56:01.891Z,56
2019-03-03T09:57:01.662Z,55
2019-03-03T09:58:01.667Z,56
2019-03-03T09:59:01.697Z,56
2019-03-03T10:00:01.719Z,55
2019-03-03T10:01:01.725Z,55
2019-03-03T10:02:01.796Z,56
2019-03-03T10:03:01.756Z,56
2019-03-03T10:04:01.809Z,55
2019-03-03T10:05:01.796Z,56
2019-03-03T10:06:01.831Z,56
2019-03-03T10:07:01.997Z,56
2019-03-03T10:08:01.894Z,56
2019-03-03T10:09:01.847Z,56
2019-03-03T10:10:01.832Z,56
2019-03-03T10:11:01.854Z,56
2019-03-03T10:12:01.895Z,57
2019-03-03T10:13:01.967Z,57
2019-03-03T10:14:01.909Z,57
2019-03-03T10:15:01.892Z,56
2019-03-03T10:16:01.908Z,56
2019-03-03T10:17:01.914Z,56
2019-03-03T10:18:05.019Z,56
2019-03-03T10:19:07.069Z,56
2019-03-03T10:20:01.905Z,56
2019-03-03T10:21:03.217Z,56
2019-03-03T10:22:01.901Z,56
2019-03-03T10:23:01.912Z,57
2019-03-03T10:24:01.912Z,56
2019-03-03T10:25:01.952Z,56
2019-03-03T10:26:01.950Z,57
2019-03-03T10:27:02.007Z,57
2019-03-03T10:28:02.062Z,57
2019-03-03T10:29:02.228Z,56
2019-03-03T10:30:02.083Z,56
2019-03-03T10:31:02.133Z,55
2019-03-03T10:32:02.159Z,55
2019-03-03T10:33:02.194Z,55
2019-03-03T10:34:02.267Z,56
2019-03-03T10:35:02.311Z,56
2019-03-03T10:36:02.273Z,56
2019-03-03T10:37:02.353Z,56
2019-03-03T10:38:02.409Z,56
2019-03-03T10:39:02.580Z,55
2019-03-03T10:40:02.468Z,56
2019-03-03T10:41:02.517Z,55
2019-03-03T10:42:02.561Z,56
2019-03-03T10:43:02.594Z,56
2019-03-03T10:44:02.701Z,56
2019-03-03T10:45:02.652Z,55
2019-03-03T10:46:02.659Z,55
2019-03-03T10:47:02.681Z,54
2019-03-03T10:48:02.721Z,55
2019-03-03T10:49:02.763Z,54
2019-03-03T10:50:02.772Z,54
2019-03-03T10:51:02.811Z,54
2019-03-03T10:52:02.905Z,55
2019-03-03T10:53:02.879Z,55
2019-03-03T10:54:02.907Z,55
2019-03-03T10:55:02.998Z,55
2019-03-03T10:56:02.952Z,55
2019-03-03T10:57:03.028Z,54
2019-03-03T10:58:03.132Z,54
2019-03-03T10:59:03.090Z,55
2019-03-03T11:00:03.421Z,54
2019-03-03T11:01:03.184Z,54
2019-03-03T11:02:03.169Z,54
2019-03-03T11:03:03.183Z,54
2019-03-03T11:04:03.230Z,55
2019-03-03T11:05:03.255Z,55
2019-03-03T11:06:03.523Z,54
2019-03-03T11:07:04.323Z,54
2019-03-03T11:08:03.310Z,54
2019-03-03T11:09:03.341Z,54
2019-03-03T11:10:03.358Z,54
2019-03-03T11:11:03.394Z,54
2019-03-03T11:12:03.450Z,55
2019-03-03T11:13:03.448Z,55
2019-03-03T11:14:03.506Z,54
2019-03-03T11:15:03.525Z,53
2019-03-03T11:16:03.493Z,53
2019-03-03T11:17:03.512Z,54
2019-03-03T11:18:03.575Z,54
2019-03-03T11:19:03.577Z,55
2019-03-03T11:20:03.609Z,54
2019-03-03T11:21:03.640Z,54
2019-03-03T11:22:03.609Z,54
2019-03-03T11:23:03.668Z,53
2019-03-03T11:24:03.688Z,54
2019-03-03T11:25:03.700Z,53
2019-03-03T11:26:03.725Z,53
2019-03-03T11:27:03.770Z,52
2019-03-03T11:28:03.774Z,52
2019-03-03T11:29:03.833Z,53
2019-03-03T11:30:03.931Z,52
2019-03-03T11:31:04.106Z,54
2019-03-03T11:32:03.874Z,53
2019-03-03T11:33:03.872Z,53
2019-03-03T11:34:03.880Z,53
2019-03-03T11:35:04.298Z,52
2019-03-03T11:36:03.906Z,53
2019-03-03T11:37:03.934Z,53
2019-03-03T11:38:03.936Z,53
2019-03-03T11:39:04.034Z,53
2019-03-03T11:40:03.997Z,53
2019-03-03T11:41:04.006Z,52
2019-03-03T11:42:04.339Z,53
2019-03-03T11:43:04.414Z,53
2019-03-03T11:44:04.417Z,51
2019-03-03T11:45:04.437Z,51
2019-03-03T11:46:04.291Z,51
2019-03-03T11:47:04.415Z,52
2019-03-03T11:48:04.728Z,51
2019-03-03T11:49:06.402Z,52
2019-03-03T11:50:04.080Z,51
2019-03-03T11:51:04.116Z,52
2019-03-03T11:52:04.137Z,53
2019-03-03T11:53:04.224Z,53
2019-03-03T11:54:04.275Z,53
2019-03-03T11:55:36.666Z,52
2019-03-03T11:56:04.171Z,52
2019-03-03T11:57:04.196Z,53
2019-03-03T11:58:04.179Z,53
2019-03-03T11:59:04.199Z,53
2019-03-03T12:00:04.186Z,54
2019-03-03T12:01:04.217Z,54
2019-03-03T12:02:04.226Z,52
2019-03-03T12:03:04.312Z,52
2019-03-03T12:04:04.210Z,52
2019-03-03T12:05:04.189Z,53
2019-03-03T12:06:04.197Z,53
2019-03-03T12:07:06.701Z,52
2019-03-03T12:08:04.261Z,52
2019-03-03T12:09:04.204Z,52
2019-03-03T12:10:04.208Z,52
2019-03-03T12:11:04.271Z,51
2019-03-03T12:12:04.255Z,51
2019-03-03T12:13:04.272Z,51
2019-03-03T12:14:04.272Z,50
2019-03-03T12:15:04.278Z,51
2019-03-03T12:16:04.295Z,51
2019-03-03T12:17:04.239Z,51
2019-03-03T12:18:04.357Z,50
2019-03-03T12:19:04.663Z,50
2019-03-03T12:20:04.678Z,50
2019-03-03T12:21:04.751Z,50
2019-03-03T12:22:04.722Z,49
2019-03-03T12:23:04.602Z,50
2019-03-03T12:24:04.325Z,50
2019-03-03T12:25:04.348Z,50
2019-03-03T12:26:04.336Z,50
2019-03-03T12:27:06.962Z,50
2019-03-03T12:28:04.368Z,51
2019-03-03T12:29:04.402Z,51
2019-03-03T12:30:04.364Z,50
2019-03-03T12:31:04.393Z,50
2019-03-03T12:32:04.453Z,51
2019-03-03T12:33:04.383Z,51
2019-03-03T12:34:04.349Z,51
2019-03-03T12:35:04.396Z,51
2019-03-03T12:36:05.066Z,51
2019-03-03T12:37:04.358Z,51
2019-03-03T12:38:04.397Z,52
2019-03-03T12:39:04.417Z,52
2019-03-03T12:40:04.423Z,52
2019-03-03T12:41:04.432Z,52
2019-03-03T12:42:04.405Z,51
2019-03-03T12:43:04.436Z,51
2019-03-03T12:44:04.423Z,51
2019-03-03T12:45:04.440Z,52
2019-03-03T12:46:04.487Z,51
2019-03-03T12:47:04.495Z,51
2019-03-03T12:48:04.499Z,51
2019-03-03T12:49:04.532Z,51
2019-03-03T12:50:04.566Z,51
2019-03-03T12:51:04.562Z,52
2019-03-03T12:52:06.861Z,51
2019-03-03T12:53:04.653Z,52
2019-03-03T12:54:04.627Z,51
2019-03-03T12:55:04.623Z,52
2019-03-03T12:56:04.685Z,52
2019-03-03T12:57:04.649Z,53
2019-03-03T12:58:04.643Z,51
2019-03-03T12:59:04.763Z,51
2019-03-03T13:00:04.701Z,51
2019-03-03T13:01:04.686Z,51
2019-03-03T13:02:04.726Z,51
2019-03-03T13:03:04.734Z,52
2019-03-03T13:04:04.740Z,51
2019-03-03T13:05:04.725Z,51
2019-03-03T13:06:04.735Z,52
2019-03-03T13:07:04.770Z,51
2019-03-03T13:08:04.735Z,53
2019-03-03T13:09:04.755Z,52
2019-03-03T13:10:04.758Z,51
2019-03-03T13:11:04.798Z,51
2019-03-03T13:12:04.800Z,50
2019-03-03T13:13:04.771Z,50
2019-03-03T13:14:04.798Z,51
2019-03-03T13:15:04.848Z,51
2019-03-03T13:16:04.816Z,50
2019-03-03T13:17:04.830Z,51
2019-03-03T13:18:04.862Z,51
2019-03-03T13:19:04.868Z,51
2019-03-03T13:20:04.811Z,50
2019-03-03T13:21:04.810Z,51
2019-03-03T13:22:04.823Z,50
2019-03-03T13:23:04.890Z,50
2019-03-03T13:24:04.927Z,51
2019-03-03T13:25:04.932Z,52
2019-03-03T13:26:04.937Z,52
2019-03-03T13:27:04.992Z,51
2019-03-03T13:28:05.162Z,51
2019-03-03T13:29:05.054Z,51
2019-03-03T13:30:05.133Z,51
2019-03-03T13:31:05.189Z,51
2019-03-03T13:32:05.159Z,51
2019-03-03T13:33:05.234Z,50
2019-03-03T13:34:05.194Z,51
2019-03-03T13:35:05.247Z,51
2019-03-03T13:36:05.288Z,51
2019-03-03T13:37:05.354Z,51
2019-03-03T13:38:05.367Z,51
2019-03-03T13:39:05.421Z,51
2019-03-03T13:40:05.430Z,51
2019-03-03T13:41:05.432Z,51
2019-03-03T13:42:05.494Z,52
2019-03-03T13:43:05.487Z,52
2019-03-03T13:44:05.510Z,51
2019-03-03T13:45:05.548Z,51
2019-03-03T13:46:05.545Z,52
2019-03-03T13:47:05.576Z,52
2019-03-03T13:48:05.627Z,52
2019-03-03T13:49:05.597Z,51
2019-03-03T13:50:05.631Z,51
2019-03-03T13:51:05.654Z,52
2019-03-03T13:52:05.682Z,51
2019-03-03T13:53:05.670Z,53
2019-03-03T13:54:06.536Z,52
2019-03-03T13:55:05.783Z,53
2019-03-03T13:56:05.775Z,53
2019-03-03T13:57:05.812Z,53
2019-03-03T13:58:05.809Z,53
2019-03-03T13:59:05.836Z,52
2019-03-03T14:00:05.995Z,52
2019-03-03T14:01:05.898Z,53
2019-03-03T14:02:05.877Z,52
2019-03-03T14:03:05.875Z,53
2019-03-03T14:04:05.922Z,53
2019-03-03T14:05:05.942Z,53
2019-03-03T14:06:05.975Z,53
2019-03-03T14:07:05.974Z,53
2019-03-03T14:08:06.340Z,53
2019-03-03T14:09:06.042Z,53
2019-03-03T14:10:06.043Z,53
2019-03-03T14:11:06.036Z,54
2019-03-03T14:12:06.459Z,54
2019-03-03T14:13:06.113Z,54
2019-03-03T14:14:06.139Z,54
2019-03-03T14:15:06.169Z,54
2019-03-03T14:16:06.198Z,54
2019-03-03T14:17:06.161Z,54